createdAt,value
2023-02-28T00:01:30.251Z,-0.50
2023-02-28T00:04:01.505Z,-0.40
2023-02-28T00:06:32.226Z,-0.50
2023-02-28T00:09:03.283Z,-0.50
2023-02-28T00:11:34.054Z,-0.50
2023-02-28T00:14:05.381Z,-0.40
2023-02-28T00:16:37.612Z,-0.40
2023-02-28T00:19:09.105Z,-0.40
2023-02-28T00:21:41.875Z,-0.50
2023-02-28T00:24:13.058Z,-0.50
2023-02-28T00:26:43.987Z,-0.50
2023-02-28T00:29:15.434Z,-0.50
2023-02-28T00:31:50.293Z,-0.50
2023-02-28T00:34:21.856Z,-0.50
2023-02-28T00:36:52.735Z,-0.60
2023-02-28T00:39:24.246Z,-0.50
2023-02-28T00:41:55.018Z,-0.50
2023-02-28T00:44:26.132Z,-0.50
2023-02-28T00:46:59.018Z,-0.50
2023-02-28T00:49:30.549Z,-0.50
2023-02-28T00:52:01.452Z,-0.50
2023-02-28T00:54:32.865Z,-0.50
2023-02-28T00:57:03.572Z,-0.50
2023-02-28T00:59:36.393Z,-0.50
2023-02-28T01:02:08.698Z,-0.60
2023-02-28T01:04:41.631Z,-0.50
2023-02-28T01:07:12.620Z,-0.50
2023-02-28T01:09:44.556Z,-0.50
2023-02-28T01:12:15.181Z,-0.50
2023-02-28T01:14:46.524Z,-0.50
2023-02-28T01:17:18.950Z,-0.50
2023-02-28T01:19:50.212Z,-0.50
2023-02-28T01:22:21.093Z,-0.50
2023-02-28T01:24:52.539Z,-0.50
2023-02-28T01:27:23.594Z,-0.50
2023-02-28T01:29:54.928Z,-0.50
2023-02-28T01:32:27.414Z,-0.50
2023-02-28T01:34:58.806Z,-0.50
2023-02-28T01:37:30.520Z,-0.60
2023-02-28T01:40:02.480Z,-0.50
2023-02-28T01:42:33.257Z,-0.60
2023-02-28T01:45:21.365Z,-0.50
2023-02-28T01:47:57.848Z,-0.50
2023-02-28T01:50:33.909Z,-0.50
2023-02-28T01:53:09.502Z,-0.60
2023-02-28T01:55:42.134Z,-0.70
2023-02-28T01:58:13.405Z,-0.70
2023-02-28T02:00:44.695Z,-0.70
2023-02-28T02:03:21.263Z,-0.70
2023-02-28T02:05:52.605Z,-0.60
2023-02-28T02:08:27.793Z,-0.60
2023-02-28T02:11:02.337Z,-0.60
2023-02-28T02:13:50.758Z,-0.60
2023-02-28T02:16:37.408Z,-0.50
2023-02-28T02:19:30.921Z,-0.50
2023-02-28T02:22:50.142Z,-0.50
2023-02-28T02:25:30.884Z,-0.50
2023-02-28T02:28:37.446Z,-0.50
2023-02-28T02:31:56.449Z,-0.50
2023-02-28T02:34:47.826Z,-0.60
2023-02-28T02:37:32.376Z,-0.60
2023-02-28T02:40:15.891Z,-0.60
2023-02-28T02:42:53.732Z,-0.80
2023-02-28T02:45:30.930Z,-0.80
2023-02-28T02:48:03.765Z,-0.70
2023-02-28T02:50:41.102Z,-0.60
2023-02-28T02:53:15.021Z,-0.70
2023-02-28T02:55:55.506Z,-0.80
2023-02-28T02:58:34.696Z,-0.90
2023-02-28T03:01:07.827Z,-0.90
2023-02-28T03:03:39.443Z,-0.90
2023-02-28T03:06:12.050Z,-0.90
2023-02-28T03:08:42.767Z,-1.00
2023-02-28T03:11:18.004Z,-1.00
2023-02-28T03:14:05.168Z,-1.00
2023-02-28T03:17:02.510Z,-0.90
2023-02-28T03:19:49.818Z,-1.00
2023-02-28T03:22:41.806Z,-1.00
2023-02-28T03:25:19.581Z,-1.00
2023-02-28T03:28:05.751Z,-1.10
2023-02-28T03:30:47.419Z,-1.10
2023-02-28T03:33:24.252Z,-1.10
2023-02-28T03:36:01.595Z,-1.10
2023-02-28T03:38:41.256Z,-1.00
2023-02-28T03:41:18.464Z,-1.10
2023-02-28T03:43:56.219Z,-1.10
2023-02-28T03:46:33.811Z,-1.00
2023-02-28T03:49:13.812Z,-1.00
2023-02-28T03:51:45.897Z,-1.00
2023-02-28T03:54:24.956Z,-1.00
2023-02-28T03:57:03.106Z,-1.00
2023-02-28T03:59:40.535Z,-1.00
2023-02-28T04:02:11.826Z,-1.10
2023-02-28T04:04:49.635Z,-1.10
2023-02-28T04:07:21.025Z,-1.00
2023-02-28T04:09:54.226Z,-1.00
2023-02-28T04:12:25.326Z,-1.10
2023-02-28T04:14:56.609Z,-1.00
2023-02-28T04:17:27.362Z,-1.00
2023-02-28T04:19:58.931Z,-0.90
2023-02-28T04:22:29.815Z,-0.90
2023-02-28T04:25:02.359Z,-0.90
2023-02-28T04:27:33.175Z,-1.00
2023-02-28T04:30:04.383Z,-1.00
2023-02-28T04:32:35.144Z,-0.90
2023-02-28T04:35:07.528Z,-0.90
2023-02-28T04:37:38.294Z,-0.80
2023-02-28T04:40:13.147Z,-0.90
2023-02-28T04:42:44.067Z,-0.90
2023-02-28T04:45:15.258Z,-0.90
2023-02-28T04:47:46.139Z,-0.90
2023-02-28T04:50:17.734Z,-0.90
2023-02-28T04:52:48.533Z,-0.90
2023-02-28T04:55:21.114Z,-0.90
2023-02-28T04:57:51.977Z,-0.90
2023-02-28T05:00:23.883Z,-0.80
2023-02-28T05:02:54.765Z,-0.80
2023-02-28T05:05:26.059Z,-0.80
2023-02-28T05:07:57.546Z,-0.80
2023-02-28T05:10:30.871Z,-0.80
2023-02-28T05:13:01.586Z,-0.80
2023-02-28T05:15:35.272Z,-0.80
2023-02-28T05:18:06.538Z,-0.80
2023-02-28T05:20:38.920Z,-0.80
2023-02-28T05:23:11.632Z,-0.80
2023-02-28T05:25:44.363Z,-0.80
2023-02-28T05:28:15.348Z,-0.80
2023-02-28T05:30:46.615Z,-0.90
2023-02-28T05:33:17.308Z,-0.90
2023-02-28T05:35:48.403Z,-1.00
2023-02-28T05:38:19.895Z,-1.00
2023-02-28T05:40:53.026Z,-0.90
2023-02-28T05:43:24.140Z,-1.00
2023-02-28T05:45:55.455Z,-0.90
2023-02-28T05:48:27.181Z,-0.90
2023-02-28T05:51:00.365Z,-0.90
2023-02-28T05:53:31.321Z,-0.90
2023-02-28T05:56:04.467Z,-0.80
2023-02-28T05:58:35.882Z,-0.80
2023-02-28T06:01:42.779Z,-0.90
2023-02-28T06:04:30.392Z,-1.00
2023-02-28T06:07:02.853Z,-1.10
2023-02-28T06:09:33.832Z,-1.20
2023-02-28T06:12:10.932Z,-1.30
2023-02-28T06:14:42.136Z,-1.50
2023-02-28T06:17:14.154Z,-1.50
2023-02-28T06:19:44.822Z,-1.50
2023-02-28T06:22:16.121Z,-1.50
2023-02-28T06:24:47.017Z,-1.50
2023-02-28T06:27:21.385Z,-1.50
2023-02-28T06:29:56.956Z,-1.50
2023-02-28T06:32:28.553Z,-1.50
2023-02-28T06:34:59.266Z,-1.40
2023-02-28T06:37:30.487Z,-1.40
2023-02-28T06:40:01.676Z,-1.30
2023-02-28T06:42:34.303Z,-1.30
2023-02-28T06:45:10.489Z,-1.20
2023-02-28T06:47:43.261Z,-1.10
2023-02-28T06:50:15.395Z,-1.00
2023-02-28T06:52:46.536Z,-0.90
2023-02-28T06:55:19.218Z,-0.80
2023-02-28T06:57:52.244Z,-0.70
2023-02-28T07:00:24.066Z,-0.60
2023-02-28T07:02:56.234Z,-0.50
2023-02-28T07:05:27.266Z,-0.40
2023-02-28T07:07:58.564Z,-0.30
2023-02-28T07:10:29.848Z,-0.30
2023-02-28T07:13:02.956Z,-0.20
2023-02-28T07:15:33.966Z,-0.10
2023-02-28T07:18:05.688Z,0.00
2023-02-28T07:20:36.559Z,0.10
2023-02-28T07:23:07.758Z,0.20
2023-02-28T07:25:39.178Z,0.20
2023-02-28T07:28:12.048Z,0.40
2023-02-28T07:30:43.566Z,0.40
2023-02-28T07:33:14.580Z,0.40
2023-02-28T07:35:45.446Z,0.40
2023-02-28T07:38:18.279Z,0.50
2023-02-28T07:40:49.057Z,0.50
2023-02-28T07:43:21.729Z,0.70
2023-02-28T07:45:52.455Z,0.70
2023-02-28T07:48:23.739Z,0.70
2023-02-28T07:50:58.197Z,0.80
2023-02-28T07:53:30.162Z,0.90
2023-02-28T07:56:03.079Z,1.00
2023-02-28T07:58:35.781Z,1.10
2023-02-28T08:01:10.623Z,1.10
2023-02-28T08:03:42.793Z,0.90
2023-02-28T08:06:20.315Z,1.10
2023-02-28T08:08:51.941Z,1.20
2023-02-28T08:11:22.944Z,1.10
2023-02-28T08:13:57.164Z,1.20
2023-02-28T08:16:28.766Z,1.30
2023-02-28T08:19:00.284Z,1.50
2023-02-28T08:21:31.605Z,1.50
2023-02-28T08:24:03.127Z,1.40
2023-02-28T08:26:34.157Z,1.50
2023-02-28T08:29:06.653Z,1.70
2023-02-28T08:31:37.741Z,1.70
2023-02-28T08:34:09.668Z,1.70
2023-02-28T08:36:41.335Z,1.60
2023-02-28T08:39:13.172Z,1.70
2023-02-28T08:41:47.963Z,1.80
2023-02-28T08:44:21.812Z,1.80
2023-02-28T08:46:52.671Z,1.70
2023-02-28T08:49:23.943Z,1.60
2023-02-28T08:51:56.392Z,1.60
2023-02-28T08:54:30.158Z,1.60
2023-02-28T08:57:00.879Z,1.80
2023-02-28T08:59:33.589Z,2.00
2023-02-28T09:02:04.491Z,1.60
2023-02-28T09:04:36.857Z,1.40
2023-02-28T09:07:07.883Z,1.30
2023-02-28T09:09:38.988Z,1.90
2023-02-28T09:12:10.127Z,2.00
2023-02-28T09:14:42.708Z,1.70
2023-02-28T09:17:13.387Z,1.70
2023-02-28T09:19:45.212Z,1.70
2023-02-28T09:22:16.233Z,1.90
2023-02-28T09:24:47.823Z,2.20
2023-02-28T09:27:18.698Z,2.40
2023-02-28T09:29:51.430Z,2.50
2023-02-28T09:32:22.314Z,2.70
2023-02-28T09:34:53.558Z,2.40
2023-02-28T09:37:24.421Z,2.00
2023-02-28T09:39:55.662Z,2.50
2023-02-28T09:42:33.903Z,2.20
2023-02-28T09:45:20.812Z,2.10
2023-02-28T09:47:54.555Z,2.40
2023-02-28T09:50:37.449Z,2.70
2023-02-28T09:53:17.977Z,2.80
2023-02-28T09:55:56.590Z,3.20
2023-02-28T09:58:37.250Z,3.40
2023-02-28T10:01:20.928Z,3.40
2023-02-28T10:04:01.304Z,3.80
2023-02-28T10:06:38.263Z,3.50
2023-02-28T10:09:16.696Z,3.60
2023-02-28T10:11:49.020Z,2.90
2023-02-28T10:14:23.933Z,3.20
2023-02-28T10:17:00.752Z,3.00
2023-02-28T10:19:37.167Z,3.50
2023-02-28T10:22:14.455Z,3.30
2023-02-28T10:24:48.307Z,3.40
2023-02-28T10:27:21.991Z,3.20
2023-02-28T10:29:55.442Z,3.30
2023-02-28T10:32:31.515Z,3.90
2023-02-28T10:35:16.698Z,4.30
2023-02-28T10:37:50.290Z,3.20
2023-02-28T10:40:36.620Z,3.60
2023-02-28T10:43:22.296Z,4.50
2023-02-28T10:46:04.316Z,5.20
2023-02-28T10:48:40.450Z,5.30
2023-02-28T10:51:14.213Z,5.50
2023-02-28T10:54:01.092Z,5.90
2023-02-28T10:56:33.638Z,6.40
2023-02-28T10:59:25.969Z,6.50
2023-02-28T11:01:57.314Z,6.30
2023-02-28T11:04:41.329Z,5.90
2023-02-28T11:07:22.272Z,6.30
2023-02-28T11:09:57.259Z,6.70
2023-02-28T11:12:34.206Z,6.80
2023-02-28T11:15:21.830Z,5.00
2023-02-28T11:17:58.853Z,4.60
2023-02-28T11:20:34.701Z,3.90
2023-02-28T11:23:06.928Z,3.00
2023-02-28T11:25:41.328Z,3.90
2023-02-28T11:28:30.934Z,3.40
2023-02-28T11:31:20.621Z,3.30
2023-02-28T11:33:53.655Z,3.00
2023-02-28T11:36:27.898Z,2.70
2023-02-28T11:39:03.739Z,3.10
2023-02-28T11:41:56.503Z,3.10
2023-02-28T11:44:46.440Z,3.10
2023-02-28T11:47:29.184Z,3.60
2023-02-28T11:50:30.130Z,3.80
2023-02-28T11:53:08.374Z,3.50
2023-02-28T11:55:41.972Z,4.10
2023-02-28T11:58:32.531Z,4.60
2023-02-28T12:01:41.491Z,5.00
2023-02-28T12:04:27.983Z,5.20
2023-02-28T12:07:09.465Z,4.70
2023-02-28T12:09:55.596Z,4.30
2023-02-28T12:12:41.498Z,3.90
2023-02-28T12:15:40.640Z,4.00
2023-02-28T12:18:39.828Z,4.50
2023-02-28T12:21:25.311Z,4.30
2023-02-28T12:24:32.058Z,4.30
2023-02-28T12:27:10.238Z,3.50
2023-02-28T12:29:51.812Z,3.90
2023-02-28T12:32:29.607Z,4.60
2023-02-28T12:35:05.831Z,4.50
2023-02-28T12:37:44.231Z,5.00
2023-02-28T12:40:18.943Z,4.20
2023-02-28T12:42:58.992Z,3.80
2023-02-28T12:45:42.806Z,4.70
2023-02-28T12:48:21.981Z,4.80
2023-02-28T12:50:53.950Z,5.10
2023-02-28T12:53:33.640Z,4.90
2023-02-28T12:56:20.067Z,4.50
2023-02-28T12:58:59.650Z,4.30
2023-02-28T13:01:53.144Z,4.30
2023-02-28T13:05:03.572Z,5.00
2023-02-28T13:08:17.481Z,4.10
2023-02-28T13:10:55.563Z,4.10
2023-02-28T13:13:30.884Z,4.40
2023-02-28T13:16:10.464Z,5.00
2023-02-28T13:18:45.208Z,5.20
2023-02-28T13:21:29.373Z,4.40
2023-02-28T13:24:06.056Z,3.90
2023-02-28T13:27:26.442Z,4.40
2023-02-28T13:29:57.482Z,4.60
2023-02-28T13:32:41.188Z,5.10
2023-02-28T13:35:47.469Z,5.30
2023-02-28T13:38:43.648Z,5.50
2023-02-28T13:41:47.986Z,4.80
2023-02-28T13:44:27.569Z,4.10
2023-02-28T13:47:25.757Z,4.90
2023-02-28T13:50:23.779Z,4.90
2023-02-28T13:53:36.536Z,5.30
2023-02-28T13:56:24.696Z,4.60
2023-02-28T13:59:04.552Z,4.80
2023-02-28T14:01:54.430Z,5.40
2023-02-28T14:04:57.290Z,5.70
2023-02-28T14:07:36.420Z,5.60
2023-02-28T14:10:10.970Z,4.30
2023-02-28T14:13:13.992Z,4.80
2023-02-28T14:15:52.501Z,4.10
2023-02-28T14:18:33.420Z,4.20
2023-02-28T14:21:26.371Z,4.90
2023-02-28T14:24:42.785Z,4.40
2023-02-28T14:27:45.143Z,4.90
2023-02-28T14:30:55.149Z,4.30
2023-02-28T14:33:38.787Z,4.90
2023-02-28T14:36:19.586Z,5.90
2023-02-28T14:38:55.264Z,5.70
2023-02-28T14:41:36.522Z,6.80
2023-02-28T14:44:20.453Z,7.20
2023-02-28T14:46:56.978Z,6.90
2023-02-28T14:49:32.185Z,7.90
2023-02-28T14:52:15.260Z,7.30
2023-02-28T14:54:47.248Z,8.40
2023-02-28T14:57:29.662Z,6.70
2023-02-28T15:00:05.100Z,7.30
2023-02-28T15:02:38.699Z,8.50
2023-02-28T15:05:37.498Z,6.90
2023-02-28T15:08:15.018Z,7.90
2023-02-28T15:10:47.969Z,9.20
2023-02-28T15:13:21.462Z,8.50
2023-02-28T15:16:03.867Z,7.40
2023-02-28T15:18:45.741Z,9.00
2023-02-28T15:21:19.271Z,6.80
2023-02-28T15:23:55.283Z,6.90
2023-02-28T15:26:32.343Z,7.50
2023-02-28T15:29:09.482Z,8.80
2023-02-28T15:31:56.959Z,9.50
2023-02-28T15:34:42.941Z,10.00
2023-02-28T15:37:41.492Z,9.40
2023-02-28T15:40:19.901Z,9.70
2023-02-28T15:43:08.869Z,8.90
2023-02-28T15:45:48.122Z,6.90
2023-02-28T15:48:23.201Z,8.10
2023-02-28T15:50:56.939Z,8.10
2023-02-28T15:53:33.974Z,8.50
2023-02-28T15:56:08.801Z,7.40
2023-02-28T15:58:40.405Z,7.20
2023-02-28T16:01:23.260Z,6.20
2023-02-28T16:03:57.574Z,5.40
2023-02-28T16:06:43.272Z,4.40
2023-02-28T16:09:17.017Z,3.90
2023-02-28T16:11:50.660Z,3.60
2023-02-28T16:14:25.172Z,3.60
2023-02-28T16:17:04.367Z,3.10
2023-02-28T16:19:35.810Z,2.80
2023-02-28T16:22:07.180Z,2.40
2023-02-28T16:24:37.975Z,2.30
2023-02-28T16:27:17.611Z,2.00
2023-02-28T16:29:49.336Z,1.80
2023-02-28T16:32:21.890Z,1.60
2023-02-28T16:34:52.860Z,1.40
2023-02-28T16:37:23.841Z,1.30
2023-02-28T16:39:54.705Z,1.30
2023-02-28T16:42:29.392Z,1.10
2023-02-28T16:45:00.327Z,1.00
2023-02-28T16:47:33.965Z,0.90
2023-02-28T16:50:07.517Z,0.80
2023-02-28T16:52:38.687Z,0.60
2023-02-28T16:55:10.220Z,0.50
2023-02-28T16:57:42.288Z,0.40
2023-02-28T17:00:16.922Z,0.30
2023-02-28T17:02:49.552Z,0.10
2023-02-28T17:05:20.977Z,0.00
2023-02-28T17:07:52.521Z,-0.10
2023-02-28T17:10:27.264Z,-0.10
2023-02-28T17:13:06.103Z,-0.20
2023-02-28T17:15:47.463Z,-0.30
2023-02-28T17:18:23.370Z,-0.50
2023-02-28T17:20:54.238Z,-0.60
2023-02-28T17:23:25.822Z,-0.70
2023-02-28T17:25:58.231Z,-0.70
2023-02-28T17:28:29.608Z,-0.70
2023-02-28T17:31:01.211Z,-0.60
2023-02-28T17:33:34.198Z,-0.60
2023-02-28T17:36:05.212Z,-0.70
2023-02-28T17:38:36.622Z,-0.80
2023-02-28T17:41:07.973Z,-0.70
2023-02-28T17:43:39.291Z,-0.80
2023-02-28T17:46:21.360Z,-0.80
2023-02-28T17:48:56.065Z,-0.80
2023-02-28T17:51:27.211Z,-0.80
2023-02-28T17:53:58.387Z,-0.80
2023-02-28T17:56:30.234Z,-0.90
2023-02-28T17:59:02.426Z,-0.80
2023-02-28T18:01:33.320Z,-0.90
2023-02-28T18:04:06.713Z,-1.00
2023-02-28T18:06:47.664Z,-1.00
2023-02-28T18:09:23.063Z,-1.00
2023-02-28T18:11:57.268Z,-0.90
2023-02-28T18:14:29.423Z,-1.10
2023-02-28T18:17:00.346Z,-1.10
2023-02-28T18:19:32.939Z,-1.10
2023-02-28T18:22:03.702Z,-1.10
2023-02-28T18:24:34.811Z,-1.10
2023-02-28T18:27:06.915Z,-1.20
2023-02-28T18:29:40.080Z,-1.30
2023-02-28T18:32:11.526Z,-1.40
2023-02-28T18:34:44.343Z,-1.40
2023-02-28T18:37:16.315Z,-1.50
2023-02-28T18:39:47.784Z,-1.50
2023-02-28T18:42:18.811Z,-1.60
2023-02-28T18:44:50.162Z,-1.70
2023-02-28T18:47:21.317Z,-1.50
2023-02-28T18:49:53.896Z,-1.50
2023-02-28T18:52:25.530Z,-1.60
2023-02-28T18:54:56.747Z,-1.60
2023-02-28T18:57:27.496Z,-1.70
2023-02-28T18:59:58.861Z,-1.80
2023-02-28T19:02:29.588Z,-1.90
2023-02-28T19:05:02.133Z,-1.90
2023-02-28T19:07:33.032Z,-1.80
2023-02-28T19:10:04.395Z,-1.60
2023-02-28T19:12:36.806Z,-1.70
2023-02-28T19:15:09.885Z,-1.70
2023-02-28T19:17:41.334Z,-1.80
2023-02-28T19:20:15.268Z,-1.90
2023-02-28T19:22:46.074Z,-2.00
2023-02-28T19:25:17.471Z,-2.00
2023-02-28T19:27:48.631Z,-2.00
2023-02-28T19:30:20.275Z,-2.10
2023-02-28T19:32:52.012Z,-2.10
2023-02-28T19:35:24.664Z,-2.10
2023-02-28T19:37:55.383Z,-2.20
2023-02-28T19:40:26.930Z,-2.20
2023-02-28T19:42:57.781Z,-2.20
2023-02-28T19:45:29.651Z,-2.30
2023-02-28T19:48:00.618Z,-2.30
2023-02-28T19:50:33.657Z,-2.30
2023-02-28T19:53:04.553Z,-2.20
2023-02-28T19:55:35.898Z,-2.20
2023-02-28T19:58:06.911Z,-2.20
2023-02-28T20:00:38.160Z,-2.30
2023-02-28T20:03:09.528Z,-2.40
2023-02-28T20:05:42.620Z,-2.30
2023-02-28T20:08:14.563Z,-2.50
2023-02-28T20:10:45.780Z,-2.50
2023-02-28T20:13:18.542Z,-2.60
2023-02-28T20:15:50.165Z,-2.60
2023-02-28T20:18:21.345Z,-2.60
2023-02-28T20:20:53.949Z,-2.60
2023-02-28T20:23:25.246Z,-2.60
2023-02-28T20:25:59.738Z,-2.80
2023-02-28T20:28:30.710Z,-2.80
2023-02-28T20:31:02.020Z,-2.80
2023-02-28T20:33:32.839Z,-2.90
2023-02-28T20:36:08.744Z,-2.70
2023-02-28T20:38:40.039Z,-2.70
2023-02-28T20:41:11.760Z,-2.60
2023-02-28T20:43:43.069Z,-2.70
2023-02-28T20:46:14.615Z,-2.80
2023-02-28T20:48:45.334Z,-2.90
2023-02-28T20:51:18.020Z,-3.00
2023-02-28T20:53:48.918Z,-3.10
2023-02-28T20:56:23.778Z,-3.10
2023-02-28T20:58:58.138Z,-3.10
2023-02-28T21:01:31.294Z,-3.10
2023-02-28T21:04:04.087Z,-3.10
2023-02-28T21:06:39.638Z,-3.10
2023-02-28T21:09:11.989Z,-3.20
2023-02-28T21:11:44.059Z,-3.20
2023-02-28T21:14:18.303Z,-3.30
2023-02-28T21:16:49.626Z,-3.30
2023-02-28T21:19:20.963Z,-3.40
2023-02-28T21:21:56.744Z,-3.50
2023-02-28T21:24:29.124Z,-3.60
2023-02-28T21:27:02.334Z,-3.90
2023-02-28T21:29:33.826Z,-3.80
2023-02-28T21:32:07.748Z,-3.80
2023-02-28T21:34:38.458Z,-3.80
2023-02-28T21:37:13.061Z,-3.80
2023-02-28T21:39:44.372Z,-3.90
2023-02-28T21:42:15.619Z,-3.90
2023-02-28T21:44:47.404Z,-3.90
2023-02-28T21:47:19.648Z,-3.60
2023-02-28T21:49:51.020Z,-3.50
2023-02-28T21:52:24.499Z,-3.30
2023-02-28T21:54:55.570Z,-3.50
2023-02-28T21:57:27.492Z,-3.50
2023-02-28T21:59:59.176Z,-3.50
2023-02-28T22:02:30.692Z,-3.50
2023-02-28T22:05:11.262Z,-3.60
2023-02-28T22:07:45.862Z,-3.70
2023-02-28T22:10:17.120Z,-3.70
2023-02-28T22:12:48.584Z,-3.70
2023-02-28T22:15:19.572Z,-3.80
2023-02-28T22:17:51.287Z,-3.80
2023-02-28T22:20:22.101Z,-3.90
2023-02-28T22:22:54.890Z,-3.90
2023-02-28T22:25:26.057Z,-3.80
2023-02-28T22:27:57.585Z,-3.70
2023-02-28T22:30:29.840Z,-3.70
2023-02-28T22:33:01.148Z,-3.60
2023-02-28T22:35:32.516Z,-3.70
2023-02-28T22:38:05.321Z,-3.80
2023-02-28T22:40:36.605Z,-3.80
2023-02-28T22:43:09.962Z,-3.90
2023-02-28T22:45:42.893Z,-3.90
2023-02-28T22:48:13.810Z,-4.00
2023-02-28T22:50:44.832Z,-4.00
2023-02-28T22:53:17.743Z,-4.10
2023-02-28T22:55:55.737Z,-4.20
2023-02-28T22:58:27.471Z,-4.20
2023-02-28T23:00:58.723Z,-4.40
2023-02-28T23:03:29.991Z,-4.40
2023-02-28T23:06:01.052Z,-4.50
2023-02-28T23:08:33.920Z,-4.50
2023-02-28T23:11:05.198Z,-4.40
2023-02-28T23:13:37.159Z,-4.50
2023-02-28T23:16:09.901Z,-4.50
2023-02-28T23:18:41.178Z,-4.50
2023-02-28T23:21:12.066Z,-4.50
2023-02-28T23:23:44.872Z,-4.50
2023-02-28T23:26:16.174Z,-4.50
2023-02-28T23:28:47.638Z,-4.50
2023-02-28T23:31:18.400Z,-4.10
2023-02-28T23:33:49.642Z,-4.20
2023-02-28T23:36:20.824Z,-4.30
2023-02-28T23:38:54.619Z,-4.40
2023-02-28T23:41:26.011Z,-4.50
2023-02-28T23:43:57.302Z,-4.60
2023-02-28T23:46:29.057Z,-4.70
2023-02-28T23:49:20.584Z,-4.80
2023-02-28T23:51:54.561Z,-4.60
2023-02-28T23:54:27.380Z,-4.70
2023-02-28T23:56:58.015Z,-4.80
2023-02-28T23:59:29.312Z,-4.80
